ADDS METAR Data INFO
IDs: Format: Raw Decoded Include TAF

Data at: 1632 UTC 25 Apr 2018

KEVW 251553Z AUTO 00000KT 10SM CLR 05/M07 A3034 RMK AO2 SLP247 T00501067
KEVW 251453Z AUTO 07003KT 10SM CLR 03/M06 A3034 RMK AO2 SLP248 T00281061 50000
KEVW 251353Z AUTO 11005KT 10SM CLR 00/M07 A3034 RMK AO2 SLP249 T00001067
KEVW 251253Z AUTO 11006KT 10SM CLR M03/M08 A3034 RMK AO2 SLP252 T10281078
KEVW 251153Z AUTO 08008KT 10SM CLR M01/M07 A3034 RMK AO2 SLP246 T10111072 10033 21011 56006
KEVW 251053Z AUTO 08006KT 10SM CLR M01/M07 A3034 RMK AO2 SLP247 T10111072
KEVW 250953Z AUTO 08007KT 10SM CLR M01/M07 A3035 RMK AO2 SLP253 T10111072
KEVW 250853Z AUTO 07003KT 10SM CLR 01/M07 A3036 RMK AO2 SLP254 T00061067 58004
KEVW 250753Z AUTO 06003KT 10SM CLR 01/M07 A3036 RMK AO2 SLP256 T00111067
KEVW 250653Z AUTO 07006KT 10SM CLR 02/M07 A3037 RMK AO2 SLP261 T00221072 401111022
KEVW 250553Z AUTO 09007KT 10SM CLR 03/M07 A3037 RMK AO2 SLP262 T00281067 10111 20022 50004
KEVW 250453Z AUTO 09009KT 10SM CLR 03/M07 A3038 RMK AO2 SLP267 T00331067
KEVW 250353Z AUTO 08007KT 10SM CLR 04/M07 A3039 RMK AO2 SLP270 T00441067
KEVW 250253Z AUTO 07007KT 10SM CLR 06/M07 A3036 RMK AO2 SLP264 T00561067 53005
KEVW 250153Z AUTO 08011KT 10SM CLR 08/M07 A3034 RMK AO2 SLP254 T00831072
KEVW 250053Z AUTO 08011KT 10SM CLR 10/M07 A3034 RMK AO2 SLP250 T01001072
KEVW 242353Z AUTO 07009KT 10SM CLR 11/M07 A3034 RMK AO2 SLP249 T01061072 10111 20056 55005
KEVW 242253Z AUTO 05007G16KT 010V080 10SM CLR 11/M07 A3033 RMK AO2 SLP248 T01061072
KEVW 242153Z AUTO 07011G17KT 10SM CLR 10/M06 A3034 RMK AO2 SLP251 T01001056
KEVW 242053Z AUTO 07011G19KT 040V110 10SM CLR 09/M05 A3036 RMK AO2 SLP256 T00941050 56008
KEVW 241953Z AUTO 06008G16KT 10SM CLR 09/M05 A3036 RMK AO2 SLP256 T00891050
KEVW 241853Z AUTO 07009G16KT 10SM FEW034 07/M04 A3038 RMK AO2 SLP266 T00671044
KEVW 241753Z AUTO 07013G22KT 10SM BKN032 06/M04 A3039 RMK AO2 SLP270 T00561039 10056 21017 53006
KEVW 241653Z AUTO 06015G20KT 10SM SCT025 04/M03 A3038 RMK AO2 SLP267 T00441033
KEVW 241553Z AUTO 05010G19KT 10SM FEW018 03/M03 A3037 RMK AO2 SLP267 T00331033
KEVW 241504Z AUTO 06012KT 10SM SCT016 01/M04 A3037 RMK AO2 T00061039
KEVW 241453Z AUTO 06014KT 10SM BKN016 01/M04 A3036 RMK AO2 SLP265 T00061039 50006
KEVW 241449Z AUTO 06014KT 10SM BKN016 01/M04 A3036 RMK AO2
KEVW 241353Z AUTO 06013KT 10SM OVC012 M01/M04 A3036 RMK AO2 SLP261 T10061039
KEVW 241253Z AUTO 08007KT 10SM OVC011 M02/M03 A3034 RMK AO2 SLP248 T10171033
KEVW 241200Z AUTO 08014KT 10SM BKN010 M02/M03 A3032 RMK AO2 T10171033
KEVW 241153Z AUTO 08013KT 10SM SCT010 M02/M04 A3032 RMK AO2 SLP240 7//// T10171039 10022 21022 53011
KEVW 241053Z AUTO 08015KT 10SM CLR M02/M04 A3030 RMK AO2 SLP234 T10221044
KEVW 240953Z AUTO 09004KT 10SM CLR M01/M04 A3030 RMK AO2 SLP228 T10111039
KEVW 240853Z AUTO 01006KT 10SM CLR M01/M04 A3028 RMK AO2 SLP220 T10111039 50002
KEVW 240753Z AUTO 36008KT 10SM CLR 00/M03 A3028 RMK AO2 SLP218 T00001028
KEVW 240653Z AUTO 35005KT 10SM CLR 01/M04 A3028 RMK AO2 SLP218 T00111039 401330011
KEVW 240553Z AUTO 35010KT 10SM CLR 02/M04 A3028 RMK AO2 SLP215 T00171039 10117 20017 51008
KEVW 240453Z AUTO 35010KT 10SM CLR 03/M04 A3027 RMK AO2 SLP217 T00281039